sensor_id;sensor_type;location;lat;lon;timestamp;temperature;humidity
27801;DHT22;15181;49.112;11.930;2022-11-20T00:01:24;1.10;99.90
27801;DHT22;15181;49.112;11.930;2022-11-20T00:03:52;1.10;99.90
27801;DHT22;15181;49.112;11.930;2022-11-20T00:06:21;1.10;99.90
27801;DHT22;15181;49.112;11.930;2022-11-20T00:08:48;1.20;99.90
27801;DHT22;15181;49.112;11.930;2022-11-20T00:11:17;1.20;99.90
27801;DHT22;15181;49.112;11.930;2022-11-20T00:13:45;1.20;99.90
27801;DHT22;15181;49.112;11.930;2022-11-20T00:16:15;1.10;99.90
27801;DHT22;15181;49.112;11.930;2022-11-20T00:18:42;1.10;99.90
27801;DHT22;15181;49.112;11.930;2022-11-20T00:21:11;1.10;99.90
27801;DHT22;15181;49.112;11.930;2022-11-20T00:23:40;1.10;99.90
27801;DHT22;15181;49.112;11.930;2022-11-20T00:26:09;1.20;99.90
27801;DHT22;15181;49.112;11.930;2022-11-20T00:28:36;1.20;99.90
27801;DHT22;15181;49.112;11.930;2022-11-20T00:31:04;1.20;99.90
27801;DHT22;15181;49.112;11.930;2022-11-20T00:33:32;1.10;99.90
27801;DHT22;15181;49.112;11.930;2022-11-20T00:36:00;1.10;99.90
27801;DHT22;15181;49.112;11.930;2022-11-20T00:38:27;1.20;99.90
27801;DHT22;15181;49.112;11.930;2022-11-20T00:40:57;1.20;99.90
27801;DHT22;15181;49.112;11.930;2022-11-20T00:43:24;1.30;99.90
27801;DHT22;15181;49.112;11.930;2022-11-20T00:45:55;1.30;99.90
27801;DHT22;15181;49.112;11.930;2022-11-20T00:48:22;1.40;99.90
27801;DHT22;15181;49.112;11.930;2022-11-20T00:50:49;1.20;99.90
27801;DHT22;15181;49.112;11.930;2022-11-20T00:53:16;1.10;99.90
27801;DHT22;15181;49.112;11.930;2022-11-20T00:55:43;1.10;99.90
27801;DHT22;15181;49.112;11.930;2022-11-20T00:58:11;1.00;99.90
27801;DHT22;15181;49.112;11.930;2022-11-20T01:00:38;0.90;99.90
27801;DHT22;15181;49.112;11.930;2022-11-20T01:03:05;0.90;99.90
27801;DHT22;15181;49.112;11.930;2022-11-20T01:05:34;0.90;99.90
27801;DHT22;15181;49.112;11.930;2022-11-20T01:08:01;0.90;99.90
27801;DHT22;15181;49.112;11.930;2022-11-20T01:10:29;0.80;99.90
27801;DHT22;15181;49.112;11.930;2022-11-20T01:12:55;0.80;99.90
27801;DHT22;15181;49.112;11.930;2022-11-20T01:15:37;0.80;99.90
27801;DHT22;15181;49.112;11.930;2022-11-20T01:18:04;0.80;99.90
27801;DHT22;15181;49.112;11.930;2022-11-20T01:20:34;0.80;99.90
27801;DHT22;15181;49.112;11.930;2022-11-20T01:23:01;0.80;99.90
27801;DHT22;15181;49.112;11.930;2022-11-20T01:25:28;0.80;99.90
27801;DHT22;15181;49.112;11.930;2022-11-20T01:27:55;0.90;99.90
27801;DHT22;15181;49.112;11.930;2022-11-20T01:30:22;0.90;99.90
27801;DHT22;15181;49.112;11.930;2022-11-20T01:32:50;0.90;99.90
27801;DHT22;15181;49.112;11.930;2022-11-20T01:35:17;0.90;99.90
27801;DHT22;15181;49.112;11.930;2022-11-20T01:37:44;0.90;99.90
27801;DHT22;15181;49.112;11.930;2022-11-20T01:40:11;1.00;99.90
27801;DHT22;15181;49.112;11.930;2022-11-20T01:42:38;1.00;99.90
27801;DHT22;15181;49.112;11.930;2022-11-20T01:45:44;1.00;99.90
27801;DHT22;15181;49.112;11.930;2022-11-20T01:48:19;1.00;99.90
27801;DHT22;15181;49.112;11.930;2022-11-20T01:50:49;1.10;99.90
27801;DHT22;15181;49.112;11.930;2022-11-20T01:53:18;1.10;99.90
27801;DHT22;15181;49.112;11.930;2022-11-20T01:55:48;1.10;99.90
27801;DHT22;15181;49.112;11.930;2022-11-20T01:58:16;1.30;99.90
27801;DHT22;15181;49.112;11.930;2022-11-20T02:00:45;1.40;99.90
27801;DHT22;15181;49.112;11.930;2022-11-20T02:03:14;1.40;99.90
27801;DHT22;15181;49.112;11.930;2022-11-20T02:05:46;1.40;99.90
27801;DHT22;15181;49.112;11.930;2022-11-20T02:08:14;1.50;99.90
27801;DHT22;15181;49.112;11.930;2022-11-20T02:10:42;1.50;99.90
27801;DHT22;15181;49.112;11.930;2022-11-20T02:13:09;1.50;99.90
27801;DHT22;15181;49.112;11.930;2022-11-20T02:15:53;1.60;99.90
27801;DHT22;15181;49.112;11.930;2022-11-20T02:18:21;1.60;99.90
27801;DHT22;15181;49.112;11.930;2022-11-20T02:20:53;1.60;99.90
27801;DHT22;15181;49.112;11.930;2022-11-20T02:23:26;1.60;99.90
27801;DHT22;15181;49.112;11.930;2022-11-20T02:25:57;1.70;99.90
27801;DHT22;15181;49.112;11.930;2022-11-20T02:28:25;1.60;99.90
27801;DHT22;15181;49.112;11.930;2022-11-20T02:30:51;1.60;99.90
27801;DHT22;15181;49.112;11.930;2022-11-20T02:33:18;1.50;99.90
27801;DHT22;15181;49.112;11.930;2022-11-20T02:35:46;1.60;99.90
27801;DHT22;15181;49.112;11.930;2022-11-20T02:38:14;1.50;99.90
27801;DHT22;15181;49.112;11.930;2022-11-20T02:40:41;1.50;99.90
27801;DHT22;15181;49.112;11.930;2022-11-20T02:43:10;1.50;99.90
27801;DHT22;15181;49.112;11.930;2022-11-20T02:45:37;1.50;99.90
27801;DHT22;15181;49.112;11.930;2022-11-20T02:48:06;1.60;99.90
27801;DHT22;15181;49.112;11.930;2022-11-20T02:50:35;1.60;99.90
27801;DHT22;15181;49.112;11.930;2022-11-20T02:53:02;1.70;99.90
27801;DHT22;15181;49.112;11.930;2022-11-20T02:55:29;1.70;99.90
27801;DHT22;15181;49.112;11.930;2022-11-20T02:57:56;1.70;99.90
27801;DHT22;15181;49.112;11.930;2022-11-20T03:00:25;1.80;99.90
27801;DHT22;15181;49.112;11.930;2022-11-20T03:02:51;1.80;99.90
27801;DHT22;15181;49.112;11.930;2022-11-20T03:05:18;1.80;99.90
27801;DHT22;15181;49.112;11.930;2022-11-20T03:07:45;1.80;99.90
27801;DHT22;15181;49.112;11.930;2022-11-20T03:10:12;1.80;99.90
27801;DHT22;15181;49.112;11.930;2022-11-20T03:12:39;1.70;99.90
27801;DHT22;15181;49.112;11.930;2022-11-20T03:15:06;1.50;99.90
27801;DHT22;15181;49.112;11.930;2022-11-20T03:17:35;1.50;99.90
27801;DHT22;15181;49.112;11.930;2022-11-20T03:20:02;1.50;99.90
27801;DHT22;15181;49.112;11.930;2022-11-20T03:22:30;1.50;99.90
27801;DHT22;15181;49.112;11.930;2022-11-20T03:24:56;1.60;99.90
27801;DHT22;15181;49.112;11.930;2022-11-20T03:27:23;1.60;99.90
27801;DHT22;15181;49.112;11.930;2022-11-20T03:29:50;1.70;99.90
27801;DHT22;15181;49.112;11.930;2022-11-20T03:32:17;1.70;99.90
27801;DHT22;15181;49.112;11.930;2022-11-20T03:34:45;1.80;99.90
27801;DHT22;15181;49.112;11.930;2022-11-20T03:37:12;1.90;99.90
27801;DHT22;15181;49.112;11.930;2022-11-20T03:39:39;1.80;99.90
27801;DHT22;15181;49.112;11.930;2022-11-20T03:42:06;1.90;99.90
27801;DHT22;15181;49.112;11.930;2022-11-20T03:44:53;2.00;99.90
27801;DHT22;15181;49.112;11.930;2022-11-20T03:47:20;1.90;99.90
27801;DHT22;15181;49.112;11.930;2022-11-20T03:49:48;1.90;99.90
27801;DHT22;15181;49.112;11.930;2022-11-20T03:52:15;2.10;99.90
27801;DHT22;15181;49.112;11.930;2022-11-20T03:54:42;2.00;99.90
27801;DHT22;15181;49.112;11.930;2022-11-20T03:57:08;2.00;99.90
27801;DHT22;15181;49.112;11.930;2022-11-20T03:59:35;2.00;99.90
27801;DHT22;15181;49.112;11.930;2022-11-20T04:02:02;2.00;99.90
27801;DHT22;15181;49.112;11.930;2022-11-20T04:04:29;2.00;99.90
27801;DHT22;15181;49.112;11.930;2022-11-20T04:06:57;2.00;99.90
27801;DHT22;15181;49.112;11.930;2022-11-20T04:09:24;2.10;99.90
27801;DHT22;15181;49.112;11.930;2022-11-20T04:11:51;2.00;99.90
27801;DHT22;15181;49.112;11.930;2022-11-20T04:14:18;2.00;99.90
27801;DHT22;15181;49.112;11.930;2022-11-20T04:16:45;2.00;99.90
27801;DHT22;15181;49.112;11.930;2022-11-20T04:19:14;2.00;99.90
27801;DHT22;15181;49.112;11.930;2022-11-20T04:21:41;2.10;99.90
27801;DHT22;15181;49.112;11.930;2022-11-20T04:24:10;2.10;99.90
27801;DHT22;15181;49.112;11.930;2022-11-20T04:26:37;2.10;99.90
27801;DHT22;15181;49.112;11.930;2022-11-20T04:29:04;2.10;99.90
27801;DHT22;15181;49.112;11.930;2022-11-20T04:31:34;2.10;99.90
27801;DHT22;15181;49.112;11.930;2022-11-20T04:34:01;2.10;99.90
27801;DHT22;15181;49.112;11.930;2022-11-20T04:36:29;2.20;99.90
27801;DHT22;15181;49.112;11.930;2022-11-20T04:38:57;2.20;99.90
27801;DHT22;15181;49.112;11.930;2022-11-20T04:41:28;2.20;99.90
27801;DHT22;15181;49.112;11.930;2022-11-20T04:43:57;2.10;99.90
27801;DHT22;15181;49.112;11.930;2022-11-20T04:46:27;2.20;99.90
27801;DHT22;15181;49.112;11.930;2022-11-20T04:48:55;2.10;99.90
27801;DHT22;15181;49.112;11.930;2022-11-20T04:51:22;2.00;99.90
27801;DHT22;15181;49.112;11.930;2022-11-20T04:53:49;1.90;99.90
27801;DHT22;15181;49.112;11.930;2022-11-20T04:56:16;1.80;99.90
27801;DHT22;15181;49.112;11.930;2022-11-20T04:58:44;1.90;99.90
27801;DHT22;15181;49.112;11.930;2022-11-20T05:01:12;1.90;99.90
27801;DHT22;15181;49.112;11.930;2022-11-20T05:03:41;1.90;99.90
27801;DHT22;15181;49.112;11.930;2022-11-20T05:06:09;2.00;99.90
27801;DHT22;15181;49.112;11.930;2022-11-20T05:08:36;2.00;99.90
27801;DHT22;15181;49.112;11.930;2022-11-20T05:11:04;2.00;99.90
27801;DHT22;15181;49.112;11.930;2022-11-20T05:13:31;1.80;99.90
27801;DHT22;15181;49.112;11.930;2022-11-20T05:16:03;1.80;99.90
27801;DHT22;15181;49.112;11.930;2022-11-20T05:18:30;1.80;99.90
27801;DHT22;15181;49.112;11.930;2022-11-20T05:20:57;1.90;99.90
27801;DHT22;15181;49.112;11.930;2022-11-20T05:23:24;1.90;99.90
27801;DHT22;15181;49.112;11.930;2022-11-20T05:25:52;2.00;99.90
27801;DHT22;15181;49.112;11.930;2022-11-20T05:28:20;2.00;99.90
27801;DHT22;15181;49.112;11.930;2022-11-20T05:30:47;1.90;99.90
27801;DHT22;15181;49.112;11.930;2022-11-20T05:33:16;1.80;99.90
27801;DHT22;15181;49.112;11.930;2022-11-20T05:35:43;1.80;99.90
27801;DHT22;15181;49.112;11.930;2022-11-20T05:38:10;1.80;99.90
27801;DHT22;15181;49.112;11.930;2022-11-20T05:40:37;1.80;99.90
27801;DHT22;15181;49.112;11.930;2022-11-20T05:43:04;1.80;99.90
27801;DHT22;15181;49.112;11.930;2022-11-20T05:45:31;1.90;99.90
27801;DHT22;15181;49.112;11.930;2022-11-20T05:47:58;1.80;99.90
27801;DHT22;15181;49.112;11.930;2022-11-20T05:50:28;1.80;99.90
27801;DHT22;15181;49.112;11.930;2022-11-20T05:52:55;1.90;99.90
27801;DHT22;15181;49.112;11.930;2022-11-20T05:55:24;1.80;99.90
27801;DHT22;15181;49.112;11.930;2022-11-20T05:57:52;1.90;99.90
27801;DHT22;15181;49.112;11.930;2022-11-20T06:00:19;2.00;99.90
27801;DHT22;15181;49.112;11.930;2022-11-20T06:02:46;2.00;99.90
27801;DHT22;15181;49.112;11.930;2022-11-20T06:05:13;2.10;99.90
27801;DHT22;15181;49.112;11.930;2022-11-20T06:07:41;2.10;99.90
27801;DHT22;15181;49.112;11.930;2022-11-20T06:10:08;2.10;99.90
27801;DHT22;15181;49.112;11.930;2022-11-20T06:12:35;2.10;99.90
27801;DHT22;15181;49.112;11.930;2022-11-20T06:15:03;2.20;99.90
27801;DHT22;15181;49.112;11.930;2022-11-20T06:17:30;2.10;99.90
27801;DHT22;15181;49.112;11.930;2022-11-20T06:19:56;2.20;99.90
27801;DHT22;15181;49.112;11.930;2022-11-20T06:22:23;2.10;99.90
27801;DHT22;15181;49.112;11.930;2022-11-20T06:24:51;2.00;99.90
27801;DHT22;15181;49.112;11.930;2022-11-20T06:27:18;1.90;99.90
27801;DHT22;15181;49.112;11.930;2022-11-20T06:29:45;1.90;99.90
27801;DHT22;15181;49.112;11.930;2022-11-20T06:32:12;1.70;99.90
27801;DHT22;15181;49.112;11.930;2022-11-20T06:34:39;1.70;99.90
27801;DHT22;15181;49.112;11.930;2022-11-20T06:37:06;1.60;99.90
27801;DHT22;15181;49.112;11.930;2022-11-20T06:39:33;1.60;99.90
27801;DHT22;15181;49.112;11.930;2022-11-20T06:42:01;1.70;99.90
27801;DHT22;15181;49.112;11.930;2022-11-20T06:44:28;1.70;99.90
27801;DHT22;15181;49.112;11.930;2022-11-20T06:46:55;1.80;99.90
27801;DHT22;15181;49.112;11.930;2022-11-20T06:49:22;1.90;99.90
27801;DHT22;15181;49.112;11.930;2022-11-20T06:51:48;1.90;99.90
27801;DHT22;15181;49.112;11.930;2022-11-20T06:54:15;2.00;99.90
27801;DHT22;15181;49.112;11.930;2022-11-20T06:56:42;2.10;99.90
27801;DHT22;15181;49.112;11.930;2022-11-20T06:59:14;2.10;99.90
27801;DHT22;15181;49.112;11.930;2022-11-20T07:01:41;2.10;99.90
27801;DHT22;15181;49.112;11.930;2022-11-20T07:04:08;2.10;99.90
27801;DHT22;15181;49.112;11.930;2022-11-20T07:06:35;2.10;99.90
27801;DHT22;15181;49.112;11.930;2022-11-20T07:09:02;2.10;99.90
27801;DHT22;15181;49.112;11.930;2022-11-20T07:11:29;2.10;99.90
27801;DHT22;15181;49.112;11.930;2022-11-20T07:13:57;2.10;99.90
27801;DHT22;15181;49.112;11.930;2022-11-20T07:16:25;2.20;99.90
27801;DHT22;15181;49.112;11.930;2022-11-20T07:18:52;2.20;99.90
27801;DHT22;15181;49.112;11.930;2022-11-20T07:21:18;2.20;99.90
27801;DHT22;15181;49.112;11.930;2022-11-20T07:23:45;2.30;99.90
27801;DHT22;15181;49.112;11.930;2022-11-20T07:26:12;2.30;99.90
27801;DHT22;15181;49.112;11.930;2022-11-20T07:28:39;2.20;99.90
27801;DHT22;15181;49.112;11.930;2022-11-20T07:31:06;2.10;99.90
27801;DHT22;15181;49.112;11.930;2022-11-20T07:33:34;2.20;99.90
27801;DHT22;15181;49.112;11.930;2022-11-20T07:36:02;2.10;99.90
27801;DHT22;15181;49.112;11.930;2022-11-20T07:38:30;1.90;99.90
27801;DHT22;15181;49.112;11.930;2022-11-20T07:40:57;1.90;99.90
27801;DHT22;15181;49.112;11.930;2022-11-20T07:43:26;1.90;99.90
27801;DHT22;15181;49.112;11.930;2022-11-20T07:45:55;1.90;99.90
27801;DHT22;15181;49.112;11.930;2022-11-20T07:48:22;2.10;99.90
27801;DHT22;15181;49.112;11.930;2022-11-20T07:50:53;2.00;99.90
27801;DHT22;15181;49.112;11.930;2022-11-20T07:53:20;2.00;99.90
27801;DHT22;15181;49.112;11.930;2022-11-20T07:55:47;1.90;99.90
27801;DHT22;15181;49.112;11.930;2022-11-20T07:58:14;1.90;99.90
27801;DHT22;15181;49.112;11.930;2022-11-20T08:00:41;1.90;99.90
27801;DHT22;15181;49.112;11.930;2022-11-20T08:03:08;2.00;99.90
27801;DHT22;15181;49.112;11.930;2022-11-20T08:05:35;2.10;99.90
27801;DHT22;15181;49.112;11.930;2022-11-20T08:08:04;2.20;99.90
27801;DHT22;15181;49.112;11.930;2022-11-20T08:10:32;2.10;99.90
27801;DHT22;15181;49.112;11.930;2022-11-20T08:12:59;2.40;99.90
27801;DHT22;15181;49.112;11.930;2022-11-20T08:15:52;2.20;99.90
27801;DHT22;15181;49.112;11.930;2022-11-20T08:18:19;2.20;99.90
27801;DHT22;15181;49.112;11.930;2022-11-20T08:20:46;2.30;99.90
27801;DHT22;15181;49.112;11.930;2022-11-20T08:23:14;2.30;99.90
27801;DHT22;15181;49.112;11.930;2022-11-20T08:25:41;2.30;99.90
27801;DHT22;15181;49.112;11.930;2022-11-20T08:28:08;2.40;99.90
27801;DHT22;15181;49.112;11.930;2022-11-20T08:30:36;2.60;99.90
27801;DHT22;15181;49.112;11.930;2022-11-20T08:33:05;2.50;99.90
27801;DHT22;15181;49.112;11.930;2022-11-20T08:35:33;2.50;99.90
27801;DHT22;15181;49.112;11.930;2022-11-20T08:38:00;2.60;99.90
27801;DHT22;15181;49.112;11.930;2022-11-20T08:40:29;2.60;99.90
27801;DHT22;15181;49.112;11.930;2022-11-20T08:42:56;2.60;99.90
27801;DHT22;15181;49.112;11.930;2022-11-20T08:45:23;2.70;99.90
27801;DHT22;15181;49.112;11.930;2022-11-20T08:47:50;2.70;99.90
27801;DHT22;15181;49.112;11.930;2022-11-20T08:50:17;2.70;99.90
27801;DHT22;15181;49.112;11.930;2022-11-20T08:52:44;2.80;99.90
27801;DHT22;15181;49.112;11.930;2022-11-20T08:55:11;2.80;99.90
27801;DHT22;15181;49.112;11.930;2022-11-20T08:57:40;2.70;99.90
27801;DHT22;15181;49.112;11.930;2022-11-20T09:00:08;2.90;99.90
27801;DHT22;15181;49.112;11.930;2022-11-20T09:02:36;2.90;99.90
27801;DHT22;15181;49.112;11.930;2022-11-20T09:05:03;2.90;99.90
27801;DHT22;15181;49.112;11.930;2022-11-20T09:07:30;3.00;99.90
27801;DHT22;15181;49.112;11.930;2022-11-20T09:09:57;3.00;99.90
27801;DHT22;15181;49.112;11.930;2022-11-20T09:12:24;3.10;99.90
27801;DHT22;15181;49.112;11.930;2022-11-20T09:14:52;3.00;99.90
27801;DHT22;15181;49.112;11.930;2022-11-20T09:17:19;3.10;99.90
27801;DHT22;15181;49.112;11.930;2022-11-20T09:19:46;3.10;99.90
27801;DHT22;15181;49.112;11.930;2022-11-20T09:22:13;3.20;99.90
27801;DHT22;15181;49.112;11.930;2022-11-20T09:24:40;3.30;99.90
27801;DHT22;15181;49.112;11.930;2022-11-20T09:27:08;3.30;99.90
27801;DHT22;15181;49.112;11.930;2022-11-20T09:29:35;3.20;99.90
27801;DHT22;15181;49.112;11.930;2022-11-20T09:32:03;3.30;99.90
27801;DHT22;15181;49.112;11.930;2022-11-20T09:34:30;3.40;99.90
27801;DHT22;15181;49.112;11.930;2022-11-20T09:36:57;3.50;99.90
27801;DHT22;15181;49.112;11.930;2022-11-20T09:39:24;3.50;99.90
27801;DHT22;15181;49.112;11.930;2022-11-20T09:42:02;3.60;99.90
27801;DHT22;15181;49.112;11.930;2022-11-20T09:44:40;3.60;99.90
27801;DHT22;15181;49.112;11.930;2022-11-20T09:47:22;3.70;99.90
27801;DHT22;15181;49.112;11.930;2022-11-20T09:50:00;3.70;99.90
27801;DHT22;15181;49.112;11.930;2022-11-20T09:52:35;3.70;99.90
27801;DHT22;15181;49.112;11.930;2022-11-20T09:55:08;3.60;99.90
27801;DHT22;15181;49.112;11.930;2022-11-20T09:57:38;3.70;99.90
27801;DHT22;15181;49.112;11.930;2022-11-20T10:00:10;3.70;99.90
27801;DHT22;15181;49.112;11.930;2022-11-20T10:02:42;3.80;99.90
27801;DHT22;15181;49.112;11.930;2022-11-20T10:05:17;3.70;99.90
27801;DHT22;15181;49.112;11.930;2022-11-20T10:07:48;3.90;99.90
27801;DHT22;15181;49.112;11.930;2022-11-20T10:10:29;3.80;99.90
27801;DHT22;15181;49.112;11.930;2022-11-20T10:13:09;3.80;99.90
27801;DHT22;15181;49.112;11.930;2022-11-20T10:15:45;3.80;99.90
27801;DHT22;15181;49.112;11.930;2022-11-20T10:18:27;3.80;99.90
27801;DHT22;15181;49.112;11.930;2022-11-20T10:21:02;3.90;99.90
27801;DHT22;15181;49.112;11.930;2022-11-20T10:23:46;3.90;99.90
27801;DHT22;15181;49.112;11.930;2022-11-20T10:26:21;4.00;99.90
27801;DHT22;15181;49.112;11.930;2022-11-20T10:29:00;4.10;99.90
27801;DHT22;15181;49.112;11.930;2022-11-20T10:31:31;4.20;99.90
27801;DHT22;15181;49.112;11.930;2022-11-20T10:34:03;4.20;99.90
27801;DHT22;15181;49.112;11.930;2022-11-20T10:36:35;4.30;99.90
27801;DHT22;15181;49.112;11.930;2022-11-20T10:39:07;4.40;99.90
27801;DHT22;15181;49.112;11.930;2022-11-20T10:41:42;4.40;99.90
27801;DHT22;15181;49.112;11.930;2022-11-20T10:44:14;4.50;99.90
27801;DHT22;15181;49.112;11.930;2022-11-20T10:47:02;4.60;99.90
27801;DHT22;15181;49.112;11.930;2022-11-20T10:49:33;4.60;99.90
27801;DHT22;15181;49.112;11.930;2022-11-20T10:52:07;4.60;99.90
27801;DHT22;15181;49.112;11.930;2022-11-20T10:54:41;4.60;99.90
27801;DHT22;15181;49.112;11.930;2022-11-20T10:57:18;4.50;99.90
27801;DHT22;15181;49.112;11.930;2022-11-20T11:00:02;4.50;99.90
27801;DHT22;15181;49.112;11.930;2022-11-20T11:02:35;4.50;99.90
27801;DHT22;15181;49.112;11.930;2022-11-20T11:05:12;4.50;99.90
27801;DHT22;15181;49.112;11.930;2022-11-20T11:07:41;4.50;99.90
27801;DHT22;15181;49.112;11.930;2022-11-20T11:10:15;4.40;99.90
27801;DHT22;15181;49.112;11.930;2022-11-20T11:12:44;4.50;99.90
27801;DHT22;15181;49.112;11.930;2022-11-20T11:15:15;4.50;99.90
27801;DHT22;15181;49.112;11.930;2022-11-20T11:17:46;4.50;99.90
27801;DHT22;15181;49.112;11.930;2022-11-20T11:20:20;4.50;99.90
27801;DHT22;15181;49.112;11.930;2022-11-20T11:22:48;4.50;99.90
27801;DHT22;15181;49.112;11.930;2022-11-20T11:25:28;4.50;99.90
27801;DHT22;15181;49.112;11.930;2022-11-20T11:27:57;4.50;99.90
27801;DHT22;15181;49.112;11.930;2022-11-20T11:30:26;4.50;99.90
27801;DHT22;15181;49.112;11.930;2022-11-20T11:33:03;4.60;99.90
27801;DHT22;15181;49.112;11.930;2022-11-20T11:35:32;4.60;99.90
27801;DHT22;15181;49.112;11.930;2022-11-20T11:38:04;4.70;99.90
27801;DHT22;15181;49.112;11.930;2022-11-20T11:40:35;4.60;99.90
27801;DHT22;15181;49.112;11.930;2022-11-20T11:43:06;4.50;99.90
27801;DHT22;15181;49.112;11.930;2022-11-20T11:45:55;4.60;99.90
27801;DHT22;15181;49.112;11.930;2022-11-20T11:48:22;4.60;99.90
27801;DHT22;15181;49.112;11.930;2022-11-20T11:50:50;4.60;99.90
27801;DHT22;15181;49.112;11.930;2022-11-20T11:53:18;4.60;99.90
27801;DHT22;15181;49.112;11.930;2022-11-20T11:55:51;4.70;99.90
27801;DHT22;15181;49.112;11.930;2022-11-20T11:58:33;4.70;99.90
27801;DHT22;15181;49.112;11.930;2022-11-20T12:01:04;4.80;99.90
27801;DHT22;15181;49.112;11.930;2022-11-20T12:03:36;4.80;99.90
27801;DHT22;15181;49.112;11.930;2022-11-20T12:06:10;4.90;99.90
27801;DHT22;15181;49.112;11.930;2022-11-20T12:08:44;4.90;99.90
27801;DHT22;15181;49.112;11.930;2022-11-20T12:11:18;4.90;99.90
27801;DHT22;15181;49.112;11.930;2022-11-20T12:13:51;5.00;99.90
27801;DHT22;15181;49.112;11.930;2022-11-20T12:16:20;5.00;99.90
27801;DHT22;15181;49.112;11.930;2022-11-20T12:18:49;5.10;99.90
27801;DHT22;15181;49.112;11.930;2022-11-20T12:21:31;5.10;99.90
27801;DHT22;15181;49.112;11.930;2022-11-20T12:24:09;5.10;99.90
27801;DHT22;15181;49.112;11.930;2022-11-20T12:26:48;5.10;99.90
27801;DHT22;15181;49.112;11.930;2022-11-20T12:29:32;5.10;99.90
27801;DHT22;15181;49.112;11.930;2022-11-20T12:35:32;5.20;99.90
27801;DHT22;15181;49.112;11.930;2022-11-20T12:38:23;5.20;99.90
27801;DHT22;15181;49.112;11.930;2022-11-20T12:41:02;5.30;99.90
27801;DHT22;15181;49.112;11.930;2022-11-20T12:43:37;5.30;99.90
27801;DHT22;15181;49.112;11.930;2022-11-20T12:46:33;5.40;99.90
27801;DHT22;15181;49.112;11.930;2022-11-20T12:49:13;5.40;99.90
27801;DHT22;15181;49.112;11.930;2022-11-20T12:52:01;5.50;99.90
27801;DHT22;15181;49.112;11.930;2022-11-20T12:54:55;5.50;99.90
27801;DHT22;15181;49.112;11.930;2022-11-20T12:57:32;5.50;99.90
27801;DHT22;15181;49.112;11.930;2022-11-20T13:00:18;5.50;99.90
27801;DHT22;15181;49.112;11.930;2022-11-20T13:03:21;5.50;99.90
27801;DHT22;15181;49.112;11.930;2022-11-20T13:05:58;5.60;99.90
27801;DHT22;15181;49.112;11.930;2022-11-20T13:08:29;5.60;99.90
27801;DHT22;15181;49.112;11.930;2022-11-20T13:11:05;5.60;99.90
27801;DHT22;15181;49.112;11.930;2022-11-20T13:13:44;5.50;99.90
27801;DHT22;15181;49.112;11.930;2022-11-20T13:16:17;5.60;99.90
27801;DHT22;15181;49.112;11.930;2022-11-20T13:18:45;5.60;99.90
27801;DHT22;15181;49.112;11.930;2022-11-20T13:21:17;5.60;99.90
27801;DHT22;15181;49.112;11.930;2022-11-20T13:23:45;5.60;99.90
27801;DHT22;15181;49.112;11.930;2022-11-20T13:26:19;5.60;99.90
27801;DHT22;15181;49.112;11.930;2022-11-20T13:28:47;5.60;99.90
27801;DHT22;15181;49.112;11.930;2022-11-20T13:31:32;5.50;99.90
27801;DHT22;15181;49.112;11.930;2022-11-20T13:34:02;5.50;99.90
27801;DHT22;15181;49.112;11.930;2022-11-20T13:36:30;5.40;99.90
27801;DHT22;15181;49.112;11.930;2022-11-20T13:38:58;5.40;99.90
27801;DHT22;15181;49.112;11.930;2022-11-20T13:41:28;5.40;99.90
27801;DHT22;15181;49.112;11.930;2022-11-20T13:43:59;5.20;99.90
27801;DHT22;15181;49.112;11.930;2022-11-20T13:46:36;5.10;99.90
27801;DHT22;15181;49.112;11.930;2022-11-20T13:49:08;5.10;99.90
27801;DHT22;15181;49.112;11.930;2022-11-20T13:51:40;5.00;99.90
27801;DHT22;15181;49.112;11.930;2022-11-20T13:54:33;5.00;99.90
27801;DHT22;15181;49.112;11.930;2022-11-20T13:57:18;5.00;99.90
27801;DHT22;15181;49.112;11.930;2022-11-20T13:59:56;4.90;99.90
27801;DHT22;15181;49.112;11.930;2022-11-20T14:02:26;5.00;99.90
27801;DHT22;15181;49.112;11.930;2022-11-20T14:04:56;4.90;99.90
27801;DHT22;15181;49.112;11.930;2022-11-20T14:07:31;5.00;99.90
27801;DHT22;15181;49.112;11.930;2022-11-20T14:09:59;5.00;99.90
27801;DHT22;15181;49.112;11.930;2022-11-20T14:12:29;5.00;99.90
27801;DHT22;15181;49.112;11.930;2022-11-20T14:14:57;5.00;99.90
27801;DHT22;15181;49.112;11.930;2022-11-20T14:17:31;5.00;99.90
27801;DHT22;15181;49.112;11.930;2022-11-20T14:20:00;5.10;99.90
27801;DHT22;15181;49.112;11.930;2022-11-20T14:22:28;5.10;99.90
27801;DHT22;15181;49.112;11.930;2022-11-20T14:25:05;5.10;99.90
27801;DHT22;15181;49.112;11.930;2022-11-20T14:27:36;5.10;99.90
27801;DHT22;15181;49.112;11.930;2022-11-20T14:30:04;5.20;99.90
27801;DHT22;15181;49.112;11.930;2022-11-20T14:32:34;5.20;99.90
27801;DHT22;15181;49.112;11.930;2022-11-20T14:35:06;5.20;99.90
27801;DHT22;15181;49.112;11.930;2022-11-20T14:37:37;5.20;99.90
27801;DHT22;15181;49.112;11.930;2022-11-20T14:40:22;5.20;99.90
27801;DHT22;15181;49.112;11.930;2022-11-20T14:42:51;5.10;99.90
27801;DHT22;15181;49.112;11.930;2022-11-20T14:45:19;5.10;99.90
27801;DHT22;15181;49.112;11.930;2022-11-20T14:47:46;5.10;99.90
27801;DHT22;15181;49.112;11.930;2022-11-20T14:50:18;5.10;99.90
27801;DHT22;15181;49.112;11.930;2022-11-20T14:52:54;5.10;99.90
27801;DHT22;15181;49.112;11.930;2022-11-20T14:55:30;5.10;99.90
27801;DHT22;15181;49.112;11.930;2022-11-20T14:58:02;5.10;99.90
27801;DHT22;15181;49.112;11.930;2022-11-20T15:00:30;4.90;99.90
27801;DHT22;15181;49.112;11.930;2022-11-20T15:02:57;4.80;99.90
27801;DHT22;15181;49.112;11.930;2022-11-20T15:05:26;4.80;99.90
27801;DHT22;15181;49.112;11.930;2022-11-20T15:08:06;4.80;99.90
27801;DHT22;15181;49.112;11.930;2022-11-20T15:10:33;4.80;99.90
27801;DHT22;15181;49.112;11.930;2022-11-20T15:13:03;4.60;99.90
27801;DHT22;15181;49.112;11.930;2022-11-20T15:15:33;4.70;99.90
27801;DHT22;15181;49.112;11.930;2022-11-20T15:18:02;4.60;99.90
27801;DHT22;15181;49.112;11.930;2022-11-20T15:20:32;4.70;99.90
27801;DHT22;15181;49.112;11.930;2022-11-20T15:22:59;4.60;99.90
27801;DHT22;15181;49.112;11.930;2022-11-20T15:25:26;4.60;99.90
27801;DHT22;15181;49.112;11.930;2022-11-20T15:27:55;4.60;99.90
27801;DHT22;15181;49.112;11.930;2022-11-20T15:30:24;4.60;99.90
27801;DHT22;15181;49.112;11.930;2022-11-20T15:32:51;4.60;99.90
27801;DHT22;15181;49.112;11.930;2022-11-20T15:35:18;4.60;99.90
27801;DHT22;15181;49.112;11.930;2022-11-20T15:37:45;4.60;99.90
27801;DHT22;15181;49.112;11.930;2022-11-20T15:40:12;4.60;99.90
27801;DHT22;15181;49.112;11.930;2022-11-20T15:42:39;4.50;99.90
27801;DHT22;15181;49.112;11.930;2022-11-20T15:45:30;4.50;99.90
27801;DHT22;15181;49.112;11.930;2022-11-20T15:47:57;4.50;99.90
27801;DHT22;15181;49.112;11.930;2022-11-20T15:50:29;4.50;99.90
27801;DHT22;15181;49.112;11.930;2022-11-20T15:52:58;4.50;99.90